Avo Nico — CUDR5 — position and weather

sailwx.info

Track history (hours):
 
Tides and Currents Weather Stations Pressure Air Temp Water Temp Dewpoint Dewpoint Depression Visibility Wind Speed Wind Dir Waves Ship Positions

Avo Nico

Last reported at 2017-Nov-24 07:30 UTC. Time now 2017-Nov-25 09:48 UTC.
Position N 38°43' W 009°42'.

MMSI: 263423380.

Date/timePositionNaut miles runAvg speedWind from/ knotsBaromVisibWave heightAir tempDewpointWater temp
2017-Nov-24 07:30N 38°43' W 009°42'3 7.0
2017-Nov-24 07:00N 38°46' W 009°40'4 7.1
2017-Nov-24 06:30N 38°49' W 009°39'3 6.8
2017-Nov-24 06:00N 38°52' W 009°37'3 6.6
2017-Nov-24 05:30N 38°55' W 009°35'3 6.6
2017-Nov-24 05:00N 38°58' W 009°34'3 6.8
2017-Nov-24 04:30N 39°01' W 009°32'3 6.9
2017-Nov-24 04:00N 39°05' W 009°31'3 6.9
2017-Nov-24 03:30N 39°08' W 009°29'4 7.1
2017-Nov-24 03:00N 39°11' W 009°28'5 7.3
2017-Nov-24 02:21N 39°16' W 009°25'3 0.1
2017-Nov-22 23:21N 39°13' W 009°27'3 8.2
2017-Nov-22 23:00N 39°10' W 009°28'4 7.9
2017-Nov-22 22:30N 39°06' W 009°30'4 7.7
2017-Nov-22 22:00N 39°03' W 009°32'4 8.1
2017-Nov-22 21:30N 38°59' W 009°34'4 8.1
2017-Nov-22 21:00N 38°55' W 009°36'4 8.0
2017-Nov-22 20:30N 38°52' W 009°38'  
2017-Nov-19 23:34N 38°33' W 009°39'0 4.1
2017-Nov-19 23:30N 38°33' W 009°39'4 8.0
2017-Nov-19 23:00N 38°31' W 009°34'4 8.0
2017-Nov-19 22:30N 38°30' W 009°29'4 8.5
2017-Nov-19 22:00N 38°28' W 009°24'4 8.3
2017-Nov-19 21:30N 38°26' W 009°19'4 8.4
2017-Nov-19 21:00N 38°25' W 009°14'4 7.8
2017-Nov-19 20:30N 38°25' W 009°09'3 5.1
2017-Nov-19 20:00N 38°26' W 009°07'0 0.0
2017-Nov-19 19:30N 38°26' W 009°07'0 0.0
2017-Nov-19 19:00N 38°26' W 009°07'0 0.0
2017-Nov-19 18:30N 38°26' W 009°07'0 0.0
2017-Nov-19 18:00N 38°26' W 009°07'0 0.0
2017-Nov-19 17:30N 38°26' W 009°07'0 0.0
2017-Nov-19 17:00N 38°26' W 009°07'0 0.0
2017-Nov-19 16:30N 38°26' W 009°07'0 0.0
2017-Nov-19 16:00N 38°26' W 009°07'0 0.0
2017-Nov-19 15:30N 38°26' W 009°07'3 6.3
2017-Nov-19 15:00N 38°24' W 009°09'4 8.0
2017-Nov-19 14:30N 38°20' W 009°12'4 8.2
2017-Nov-19 14:00N 38°17' W 009°15'4 8.2
2017-Nov-19 13:30N 38°14' W 009°18'22 6.6
2017-Nov-19 10:08N 37°55' W 009°34'9 1.9
2017-Nov-19 05:16N 38°03' W 009°27'2 0.1
2017-Nov-18 09:19N 38°01' W 009°28'5 0.5
2017-Nov-17 23:31N 38°05' W 009°26'0 6.5
2017-Nov-17 23:30N 38°05' W 009°26'2 0.1
2017-Nov-17 03:55N 38°07' W 009°24'3 7.2
2017-Nov-17 03:30N 38°10' W 009°22'4 7.9
2017-Nov-17 03:00N 38°13' W 009°19'4 7.7
2017-Nov-17 02:30N 38°16' W 009°16'4 7.7
2017-Nov-17 02:00N 38°19' W 009°13'4 8.3
2017-Nov-17 01:30N 38°22' W 009°10'4 8.3
2017-Nov-17 01:00N 38°26' W 009°07'1 1.4
2017-Nov-17 00:30N 38°26' W 009°07'0 0.0
2017-Nov-17 00:00N 38°26' W 009°07'0 0.0
2017-Nov-16 23:30N 38°26' W 009°07'0 0.0
2017-Nov-16 23:00N 38°26' W 009°07'0 0.2
2017-Nov-16 22:30N 38°26' W 009°07'0 0.0
2017-Nov-16 22:00N 38°26' W 009°07'0 0.0
2017-Nov-16 21:30N 38°26' W 009°07'0 0.0
2017-Nov-16 21:00N 38°26' W 009°07'0 0.2
2017-Nov-16 20:30N 38°26' W 009°07'0 0.0
2017-Nov-16 20:00N 38°26' W 009°07'0 0.8
2017-Nov-16 19:30N 38°26' W 009°07'4 7.9
2017-Nov-16 19:00N 38°23' W 009°10'4 8.0
2017-Nov-16 18:30N 38°20' W 009°13'4 8.0
2017-Nov-16 18:00N 38°16' W 009°15'4 8.1
2017-Nov-16 17:30N 38°13' W 009°19'13 0.3
2017-Nov-15 01:15N 38°03' W 009°27'1 2.3
2017-Nov-15 01:00N 38°03' W 009°27'5 3.0
2017-Nov-14 23:24N 38°07' W 009°24'3 7.1
2017-Nov-14 23:00N 38°10' W 009°22'4 7.8
2017-Nov-14 22:30N 38°13' W 009°19'4 7.4
2017-Nov-14 22:00N 38°16' W 009°16'4 7.6
2017-Nov-14 21:30N 38°19' W 009°13'7 8.0
2017-Nov-14 20:39N 38°24' W 009°08'1 7.9
2017-Nov-14 20:29N 38°25' W 009°07'1 2.2
2017-Nov-14 20:00N 38°26' W 009°07'0 0.0
2017-Nov-14 19:30N 38°26' W 009°07'0 0.0
2017-Nov-14 19:01N 38°26' W 009°07'0 0.0
2017-Nov-14 18:30N 38°26' W 009°07'0 0.0
2017-Nov-14 18:00N 38°26' W 009°07'0 0.0
2017-Nov-14 17:31N 38°26' W 009°07'0 0.0
2017-Nov-14 17:00N 38°26' W 009°07'0 0.0
2017-Nov-14 16:30N 38°26' W 009°07'0 0.0
2017-Nov-14 16:00N 38°26' W 009°07'0 0.0
2017-Nov-14 15:30N 38°26' W 009°07'0 0.0
2017-Nov-14 15:00N 38°26' W 009°07'2 3.9
2017-Nov-14 14:30N 38°25' W 009°08'4 7.7
2017-Nov-14 13:58N 38°21' W 009°11'4 8.0
2017-Nov-14 13:30N 38°19' W 009°14'4 8.0
2017-Nov-14 12:57N 38°15' W 009°18'3 7.8
2017-Nov-14 12:30N 38°12' W 009°20'  
Track history (hours):
 
Tides and Currents Weather Stations Pressure Air Temp Water Temp Dewpoint Dewpoint Depression Visibility Wind Speed Wind Dir Waves Ship Positions

Avo Nico

Last reported at 2017-Nov-24 07:30 UTC. Time now 2017-Nov-25 09:48 UTC.
Position N 38°43' W 009°42'.

MMSI: 263423380.

Date/timePositionNaut miles runAvg speedWind from/ knotsBaromVisibWave heightAir tempDewpointWater temp
2017-Nov-24 07:30N 38°43' W 009°42'3 7.0
2017-Nov-24 07:00N 38°46' W 009°40'4 7.1
2017-Nov-24 06:30N 38°49' W 009°39'3 6.8
2017-Nov-24 06:00N 38°52' W 009°37'3 6.6
2017-Nov-24 05:30N 38°55' W 009°35'3 6.6
2017-Nov-24 05:00N 38°58' W 009°34'3 6.8
2017-Nov-24 04:30N 39°01' W 009°32'3 6.9
2017-Nov-24 04:00N 39°05' W 009°31'3 6.9
2017-Nov-24 03:30N 39°08' W 009°29'4 7.1
2017-Nov-24 03:00N 39°11' W 009°28'5 7.3
2017-Nov-24 02:21N 39°16' W 009°25'3 0.1
2017-Nov-22 23:21N 39°13' W 009°27'3 8.2
2017-Nov-22 23:00N 39°10' W 009°28'4 7.9
2017-Nov-22 22:30N 39°06' W 009°30'4 7.7
2017-Nov-22 22:00N 39°03' W 009°32'4 8.1
2017-Nov-22 21:30N 38°59' W 009°34'4 8.1
2017-Nov-22 21:00N 38°55' W 009°36'4 8.0
2017-Nov-22 20:30N 38°52' W 009°38'  
2017-Nov-19 23:34N 38°33' W 009°39'0 4.1
2017-Nov-19 23:30N 38°33' W 009°39'4 8.0
2017-Nov-19 23:00N 38°31' W 009°34'4 8.0
2017-Nov-19 22:30N 38°30' W 009°29'4 8.5
2017-Nov-19 22:00N 38°28' W 009°24'4 8.3
2017-Nov-19 21:30N 38°26' W 009°19'4 8.4
2017-Nov-19 21:00N 38°25' W 009°14'4 7.8
2017-Nov-19 20:30N 38°25' W 009°09'3 5.1
2017-Nov-19 20:00N 38°26' W 009°07'0 0.0
2017-Nov-19 19:30N 38°26' W 009°07'0 0.0
2017-Nov-19 19:00N 38°26' W 009°07'0 0.0
2017-Nov-19 18:30N 38°26' W 009°07'0 0.0
2017-Nov-19 18:00N 38°26' W 009°07'0 0.0
2017-Nov-19 17:30N 38°26' W 009°07'0 0.0
2017-Nov-19 17:00N 38°26' W 009°07'0 0.0
2017-Nov-19 16:30N 38°26' W 009°07'0 0.0
2017-Nov-19 16:00N 38°26' W 009°07'0 0.0
2017-Nov-19 15:30N 38°26' W 009°07'3 6.3
2017-Nov-19 15:00N 38°24' W 009°09'4 8.0
2017-Nov-19 14:30N 38°20' W 009°12'4 8.2
2017-Nov-19 14:00N 38°17' W 009°15'4 8.2
2017-Nov-19 13:30N 38°14' W 009°18'22 6.6
2017-Nov-19 10:08N 37°55' W 009°34'9 1.9
2017-Nov-19 05:16N 38°03' W 009°27'2 0.1
2017-Nov-18 09:19N 38°01' W 009°28'5 0.5
2017-Nov-17 23:31N 38°05' W 009°26'0 6.5
2017-Nov-17 23:30N 38°05' W 009°26'2 0.1
2017-Nov-17 03:55N 38°07' W 009°24'3 7.2
2017-Nov-17 03:30N 38°10' W 009°22'4 7.9
2017-Nov-17 03:00N 38°13' W 009°19'4 7.7
2017-Nov-17 02:30N 38°16' W 009°16'4 7.7
2017-Nov-17 02:00N 38°19' W 009°13'4 8.3
2017-Nov-17 01:30N 38°22' W 009°10'4 8.3
2017-Nov-17 01:00N 38°26' W 009°07'1 1.4
2017-Nov-17 00:30N 38°26' W 009°07'0 0.0
2017-Nov-17 00:00N 38°26' W 009°07'0 0.0
2017-Nov-16 23:30N 38°26' W 009°07'0 0.0
2017-Nov-16 23:00N 38°26' W 009°07'0 0.2
2017-Nov-16 22:30N 38°26' W 009°07'0 0.0
2017-Nov-16 22:00N 38°26' W 009°07'0 0.0
2017-Nov-16 21:30N 38°26' W 009°07'0 0.0
2017-Nov-16 21:00N 38°26' W 009°07'0 0.2
2017-Nov-16 20:30N 38°26' W 009°07'0 0.0
2017-Nov-16 20:00N 38°26' W 009°07'0 0.8
2017-Nov-16 19:30N 38°26' W 009°07'4 7.9
2017-Nov-16 19:00N 38°23' W 009°10'4 8.0
2017-Nov-16 18:30N 38°20' W 009°13'4 8.0
2017-Nov-16 18:00N 38°16' W 009°15'4 8.1
2017-Nov-16 17:30N 38°13' W 009°19'13 0.3
2017-Nov-15 01:15N 38°03' W 009°27'1 2.3
2017-Nov-15 01:00N 38°03' W 009°27'5 3.0
2017-Nov-14 23:24N 38°07' W 009°24'3 7.1
2017-Nov-14 23:00N 38°10' W 009°22'4 7.8
2017-Nov-14 22:30N 38°13' W 009°19'4 7.4
2017-Nov-14 22:00N 38°16' W 009°16'4 7.6
2017-Nov-14 21:30N 38°19' W 009°13'7 8.0
2017-Nov-14 20:39N 38°24' W 009°08'1 7.9
2017-Nov-14 20:29N 38°25' W 009°07'1 2.2
2017-Nov-14 20:00N 38°26' W 009°07'0 0.0
2017-Nov-14 19:30N 38°26' W 009°07'0 0.0
2017-Nov-14 19:01N 38°26' W 009°07'0 0.0
2017-Nov-14 18:30N 38°26' W 009°07'0 0.0
2017-Nov-14 18:00N 38°26' W 009°07'0 0.0
2017-Nov-14 17:31N 38°26' W 009°07'0 0.0
2017-Nov-14 17:00N 38°26' W 009°07'0 0.0
2017-Nov-14 16:30N 38°26' W 009°07'0 0.0
2017-Nov-14 16:00N 38°26' W 009°07'0 0.0
2017-Nov-14 15:30N 38°26' W 009°07'0 0.0
2017-Nov-14 15:00N 38°26' W 009°07'2 3.9
2017-Nov-14 14:30N 38°25' W 009°08'4 7.7
2017-Nov-14 13:58N 38°21' W 009°11'4 8.0
2017-Nov-14 13:30N 38°19' W 009°14'4 8.0
2017-Nov-14 12:57N 38°15' W 009°18'3 7.8
2017-Nov-14 12:30N 38°12' W 009°20'  

Dump ship's entire track history